Aérodrome :
LOGIN :

S'inscrire | Disclaimer

   EN    FR    IT 

 










Légende :    VFR   VFR Marginal   IFR   IFR Intensif   IFR Très Intensif
Visi : 
Plafond : 
>= 8 km
>= 3000ft
5 à 8 km
1000 à 3000 ft
1500m à 5 km
500 à 1000 ft
800 à 1500m
200 à 500 ft
< 800m
< 200 ft
Symboles :   Orages  Brouillard  Fortes neiges  Fortes précipitations  Vent > 20 kt
SIGMETs :   Divers  Orages  Givrage  Turbulence  Onde Orograph.  Cendres Volcan.







- Altitude de l'aérodrome : 14 ft
- Code IATA : BRE


EDDW - Bremen Neuenland

DERNIER METAR :
  • 211250Z 06010KT CAVOK 26/12 Q1011 NOSIG

METARs EXPIRÉS :
  • 211220Z 05009KT CAVOK 25/12 Q1011 NOSIG
  • 211150Z 06009KT CAVOK 24/12 Q1011 NOSIG
  • 211120Z 06008KT 030V090 CAVOK 23/11 Q1012 NOSIG
  • 211050Z 07010KT CAVOK 23/11 Q1012 NOSIG
  • 211020Z 08008KT 050V120 CAVOK 23/11 Q1012 NOSIG

TAF TAF EDDW
Valide du 21 à 12h jusqu'au 22 à 12h UTC


211100Z 2112/2212 09007KT CAVOK
BECMG 2117/2119 03004KT
PROB30
TEMPO 2202/2206 -TSRA SCT045CB
BECMG 2206/2208 30008KT
Pas de NOTAMs connus pour ce terrain.



MET'MAP, la Météo Aéronautique d'un coup d'oeil ! - Copyright ORBIFLY Décembre 2007 - Disclaimer

ORBIFLY MET'MAP TEAM :

Programmation & Développement : Alexandra Zaïnal
Conception & Développement : Baudouin d'Aumeries
Co-Programmation & Développement : Marc-Olivier Méhu
Soutien technique & logistique : Manuel Goepfert

Contact : metmap@orbifly.com




SOURCES & CREDITS :

   NOAA